Time;durP1;ratioP1;P1;durP2;ratioP2;P2;SDS_P1;SDS_P2;PMS_P1;PMS_P2;Temp;Humidity;BMP_temperature;BMP_pressure;BME280_temperature;BME280_humidity;BME280_pressure;Samples;Min_cycle;Max_cycle;Signal;HPM_P1;HPM_P2
2024/03/12 00:00:21;;;;;;;6.25;1.38;;;27.90;30.70;;;;;;5103338;28;20467;-59
2024/03/12 00:02:48;;;;;;;5.80;1.27;;;27.70;30.60;;;;;;5110488;28;20130;-60
2024/03/12 00:05:15;;;;;;;25.58;2.58;;;27.60;31.30;;;;;;5103064;28;20071;-60
2024/03/12 00:07:46;;;;;;;10.40;1.52;;;27.20;31.50;;;;;;5109681;28;20068;-59
2024/03/12 00:10:17;;;;;;;4.93;1.25;;;27.10;32.20;;;;;;5112103;28;20143;-60
2024/03/12 00:12:47;;;;;;;13.52;2.08;;;26.90;32.40;;;;;;5106882;28;20084;-59
2024/03/12 00:15:17;;;;;;;11.82;1.60;;;26.80;32.40;;;;;;5101372;28;20069;-58
2024/03/12 00:17:49;;;;;;;8.40;1.50;;;26.70;32.40;;;;;;5105070;28;20429;-60
2024/03/12 00:20:35;;;;;;;9.48;1.60;;;26.50;32.20;;;;;;5110793;28;20068;-59
2024/03/12 00:23:05;;;;;;;5.32;1.77;;;26.50;32.60;;;;;;5111072;28;20120;-60
2024/03/12 00:25:33;;;;;;;4.68;1.48;;;26.20;32.70;;;;;;5106620;28;20155;-60
2024/03/12 00:28:00;;;;;;;10.30;1.83;;;26.20;33.00;;;;;;5097482;28;20149;-59
2024/03/12 00:30:30;;;;;;;5.80;1.60;;;26.10;33.10;;;;;;5103643;28;20551;-60
2024/03/12 00:32:58;;;;;;;4.20;1.67;;;26.00;33.20;;;;;;5095148;28;20072;-60
2024/03/12 00:35:28;;;;;;;10.38;1.60;;;26.00;33.50;;;;;;5105062;28;20083;-61
2024/03/12 00:37:57;;;;;;;9.55;1.83;;;26.10;34.10;;;;;;5109724;28;20133;-60
2024/03/12 00:40:32;;;;;;;14.77;2.50;;;26.00;34.30;;;;;;5111438;28;20076;-59
2024/03/12 00:43:00;;;;;;;12.30;2.38;;;25.90;34.50;;;;;;5105073;27;20107;-60
2024/03/12 00:45:29;;;;;;;8.07;2.42;;;25.90;34.90;;;;;;5110422;28;20076;-58
2024/03/12 00:47:57;;;;;;;18.35;2.92;;;25.80;35.00;;;;;;5106195;28;20187;-58
2024/03/12 00:50:24;;;;;;;7.55;2.13;;;25.80;35.10;;;;;;5109264;28;20190;-59
2024/03/12 00:52:53;;;;;;;12.23;2.78;;;25.70;35.00;;;;;;5110483;27;20068;-59
2024/03/12 00:55:20;;;;;;;8.65;3.20;;;25.70;35.30;;;;;;5110048;28;20076;-59
2024/03/12 00:57:48;;;;;;;21.73;3.33;;;25.60;35.60;;;;;;5109187;28;20099;-60
2024/03/12 01:00:17;;;;;;;15.32;3.60;;;25.40;36.00;;;;;;5096839;28;20456;-58
2024/03/12 01:02:49;;;;;;;13.43;3.30;;;25.30;36.30;;;;;;5110589;28;20068;-59
2024/03/12 01:05:26;;;;;;;12.40;3.60;;;25.30;36.80;;;;;;5109182;28;20087;-59
2024/03/12 01:07:59;;;;;;;9.40;2.75;;;25.20;36.50;;;;;;5109623;28;20536;-59
2024/03/12 01:10:30;;;;;;;12.05;3.70;;;25.10;36.80;;;;;;5109843;28;20076;-59
2024/03/12 01:12:59;;;;;;;17.27;3.58;;;25.00;36.80;;;;;;5104335;28;20068;-59
2024/03/12 01:15:29;;;;;;;19.73;3.45;;;24.90;36.90;;;;;;5101220;28;20155;-59
2024/03/12 01:17:56;;;;;;;13.75;3.70;;;24.70;37.70;;;;;;5105689;28;20097;-60
2024/03/12 01:20:24;;;;;;;18.02;4.50;;;24.70;38.60;;;;;;5110566;28;20068;-59
2024/03/12 01:22:51;;;;;;;23.65;4.95;;;24.60;39.40;;;;;;5108660;28;20108;-59
2024/03/12 01:25:21;;;;;;;18.02;4.07;;;24.40;40.10;;;;;;5104719;28;20125;-58
2024/03/12 01:27:48;;;;;;;32.55;14.55;;;24.40;40.20;;;;;;5109617;28;20078;-59
2024/03/12 01:30:16;;;;;;;21.70;3.95;;;24.30;40.40;;;;;;5106515;28;20130;-58
2024/03/12 01:32:46;;;;;;;16.15;4.43;;;24.20;41.00;;;;;;5106405;28;20076;-59
2024/03/12 01:35:13;;;;;;;18.67;4.43;;;24.10;41.90;;;;;;5109679;28;20080;-59
2024/03/12 01:37:45;;;;;;;17.05;4.32;;;24.00;42.60;;;;;;5110059;28;20210;-59
2024/03/12 01:43:08;;;;;;;23.40;4.37;;;23.80;43.20;;;;;;5086065;28;20115;-59
2024/03/12 01:45:35;;;;;;;14.02;3.85;;;23.80;43.90;;;;;;5105006;28;20293;-59
2024/03/12 01:48:07;;;;;;;17.58;4.60;;;23.70;45.00;;;;;;5103436;28;20108;-59
2024/03/12 01:50:35;;;;;;;21.02;4.45;;;23.60;45.00;;;;;;5105745;28;20559;-60
2024/03/12 01:53:06;;;;;;;21.00;4.50;;;23.50;45.30;;;;;;5107698;28;20072;-59
2024/03/12 01:55:34;;;;;;;16.50;3.85;;;23.40;45.70;;;;;;5117997;28;20068;-59
2024/03/12 01:58:02;;;;;;;34.85;17.80;;;23.40;46.10;;;;;;5113733;28;20107;-60
2024/03/12 02:00:32;;;;;;;18.90;4.30;;;23.30;46.40;;;;;;5103401;28;20072;-60
2024/03/12 02:02:59;;;;;;;15.68;4.50;;;23.20;46.50;;;;;;5102470;28;20088;-60
2024/03/12 02:05:26;;;;;;;17.70;4.68;;;23.20;47.00;;;;;;5107068;28;20076;-61
2024/03/12 02:07:53;;;;;;;17.23;4.07;;;23.00;47.10;;;;;;5108597;28;20068;-60
2024/03/12 02:10:21;;;;;;;29.55;11.45;;;22.90;47.50;;;;;;5108394;28;20130;-60
2024/03/12 02:12:47;;;;;;;14.63;4.00;;;22.90;47.70;;;;;;5108785;28;20518;-60
2024/03/12 02:15:22;;;;;;;16.58;4.50;;;22.80;48.00;;;;;;5103057;28;20072;-60
2024/03/12 02:17:51;;;;;;;17.73;4.72;;;22.80;48.30;;;;;;5109455;27;20071;-60
2024/03/12 02:20:18;;;;;;;13.73;4.00;;;22.80;48.50;;;;;;5109104;28;20079;-60
2024/03/12 02:22:45;;;;;;;14.65;3.83;;;22.70;48.70;;;;;;5108451;28;20119;-60
2024/03/12 02:25:11;;;;;;;19.20;4.95;;;22.60;48.80;;;;;;5108704;28;20463;-59
2024/03/12 02:27:41;;;;;;;20.52;4.85;;;22.50;49.00;;;;;;5101645;28;20068;-60
2024/03/12 02:30:09;;;;;;;15.80;5.47;;;22.40;49.30;;;;;;5107438;28;20084;-60
2024/03/12 02:32:38;;;;;;;15.68;5.03;;;22.40;49.40;;;;;;5096904;28;20447;-59
2024/03/12 02:35:10;;;;;;;17.17;5.63;;;22.30;49.50;;;;;;5100257;28;20079;-59
2024/03/12 02:37:37;;;;;;;18.45;6.22;;;22.30;49.60;;;;;;5109759;28;20074;-60
2024/03/12 02:40:07;;;;;;;28.83;7.75;;;22.20;49.60;;;;;;5108859;28;20498;-61
2024/03/12 02:42:34;;;;;;;24.25;7.38;;;22.20;49.80;;;;;;5108984;28;20078;-60
2024/03/12 02:45:00;;;;;;;19.08;5.95;;;22.10;50.00;;;;;;5109181;28;20448;-61
2024/03/12 02:47:26;;;;;;;17.40;4.65;;;22.00;50.30;;;;;;5108494;28;20076;-59
2024/03/12 02:49:53;;;;;;;19.90;4.47;;;22.00;50.70;;;;;;5093652;28;20096;-59
2024/03/12 02:52:20;;;;;;;24.10;4.97;;;21.90;51.20;;;;;;5108513;28;20113;-60
2024/03/12 02:54:46;;;;;;;17.83;4.85;;;21.80;51.60;;;;;;5109131;28;20064;-53
2024/03/12 02:57:13;;;;;;;20.13;4.40;;;21.70;52.10;;;;;;5111628;28;20079;-60
2024/03/12 02:59:39;;;;;;;21.52;4.43;;;21.70;52.70;;;;;;5108963;28;20068;-59
2024/03/12 03:02:06;;;;;;;13.48;4.28;;;21.60;53.10;;;;;;5108650;28;20078;-57
2024/03/12 03:04:36;;;;;;;12.65;3.78;;;21.50;53.60;;;;;;5111790;28;20443;-60
2024/03/12 03:07:07;;;;;;;12.13;3.55;;;21.40;53.80;;;;;;5109265;28;20558;-59
2024/03/12 03:09:34;;;;;;;21.63;4.95;;;21.30;54.10;;;;;;5112327;28;20141;-58
2024/03/12 03:12:00;;;;;;;9.70;3.83;;;21.20;54.20;;;;;;5105628;28;20096;-60
2024/03/12 03:14:27;;;;;;;16.08;3.70;;;21.20;54.50;;;;;;5111196;28;20068;-60
2024/03/12 03:16:56;;;;;;;20.33;3.70;;;21.10;54.70;;;;;;5101537;28;20086;-59
2024/03/12 03:19:23;;;;;;;18.52;3.58;;;21.00;54.80;;;;;;5110380;28;20425;-62
2024/03/12 03:21:49;;;;;;;14.18;3.78;;;20.90;55.00;;;;;;5107867;28;20124;-59
2024/03/12 03:24:16;;;;;;;17.23;3.25;;;20.90;55.10;;;;;;5112149;28;20658;-58
2024/03/12 03:26:42;;;;;;;13.50;3.13;;;20.80;55.20;;;;;;5103076;27;20076;-62
2024/03/12 03:29:08;;;;;;;17.45;3.30;;;20.80;55.40;;;;;;5110681;28;20188;-60
2024/03/12 03:31:35;;;;;;;13.38;4.07;;;20.70;55.40;;;;;;5107804;28;20075;-59
2024/03/12 03:34:04;;;;;;;11.05;4.05;;;20.60;55.50;;;;;;5109645;27;20091;-60
2024/03/12 03:36:36;;;;;;;18.38;5.00;;;20.60;55.90;;;;;;5108422;28;20087;-60
2024/03/12 03:39:03;;;;;;;20.10;4.05;;;20.50;56.00;;;;;;5106302;28;20068;-59
2024/03/12 03:41:30;;;;;;;18.80;3.55;;;20.50;56.40;;;;;;5109607;28;20068;-59
2024/03/12 03:43:57;;;;;;;11.95;3.10;;;20.40;56.60;;;;;;5106136;27;20506;-62
2024/03/12 03:46:23;;;;;;;10.38;3.08;;;20.30;57.10;;;;;;5111291;27;20095;-61
2024/03/12 03:48:49;;;;;;;11.68;3.17;;;20.30;57.20;;;;;;5109706;28;20100;-60
2024/03/12 03:51:16;;;;;;;8.95;3.03;;;20.20;57.20;;;;;;5105994;28;20548;-60
2024/03/12 03:53:43;;;;;;;11.88;2.83;;;20.20;57.50;;;;;;5108364;27;20700;-60
2024/03/12 03:56:15;;;;;;;10.25;3.08;;;20.10;57.60;;;;;;5107074;28;20074;-61
2024/03/12 03:58:43;;;;;;;8.05;2.72;;;20.00;57.80;;;;;;5096783;28;20077;-60
2024/03/12 04:01:10;;;;;;;8.07;2.65;;;20.00;58.10;;;;;;5103404;28;20078;-59
2024/03/12 04:03:38;;;;;;;12.25;2.78;;;19.90;58.20;;;;;;5104589;28;20118;-60
2024/03/12 04:06:06;;;;;;;9.65;2.58;;;19.90;58.50;;;;;;5105138;28;20083;-60
2024/03/12 04:08:35;;;;;;;8.80;2.40;;;19.80;58.40;;;;;;5103300;28;20536;-59
2024/03/12 04:11:02;;;;;;;13.70;3.22;;;19.80;58.50;;;;;;5099410;28;20076;-60
2024/03/12 04:13:28;;;;;;;10.98;3.03;;;19.70;58.50;;;;;;5110673;28;20076;-59
2024/03/12 04:15:55;;;;;;;11.98;2.70;;;19.70;58.40;;;;;;5105061;28;20083;-53
2024/03/12 04:18:22;;;;;;;7.53;2.55;;;19.70;58.30;;;;;;5114217;27;20163;-50
2024/03/12 04:20:49;;;;;;;8.70;2.38;;;19.60;58.10;;;;;;5105139;27;20068;-61
2024/03/12 04:23:15;;;;;;;11.27;2.60;;;19.60;58.10;;;;;;5112754;27;20187;-60
2024/03/12 04:25:43;;;;;;;12.30;2.63;;;19.50;58.30;;;;;;5113454;27;20074;-59
2024/03/12 04:28:10;;;;;;;14.45;3.17;;;19.40;58.50;;;;;;5115080;28;20119;-60
2024/03/12 04:30:39;;;;;;;9.98;2.90;;;19.40;58.50;;;;;;5111244;27;20530;-61
2024/03/12 04:33:06;;;;;;;16.23;3.33;;;19.40;58.60;;;;;;5113136;27;20492;-60
2024/03/12 04:35:32;;;;;;;10.93;2.50;;;19.30;58.70;;;;;;5110998;27;20099;-61
2024/03/12 04:37:59;;;;;;;12.00;2.88;;;19.30;59.00;;;;;;5102169;27;20065;-60
2024/03/12 04:40:26;;;;;;;9.20;2.70;;;19.30;59.40;;;;;;5111334;27;20147;-61
2024/03/12 04:42:53;;;;;;;10.23;3.03;;;19.20;59.50;;;;;;5113958;27;20069;-61
2024/03/12 04:45:24;;;;;;;14.75;3.25;;;19.20;60.00;;;;;;5107051;27;20084;-62
2024/03/12 04:47:51;;;;;;;9.48;2.65;;;19.20;59.40;;;;;;5102979;27;20558;-60
2024/03/12 04:50:19;;;;;;;11.32;3.28;;;19.10;59.30;;;;;;5097596;28;20183;-60
2024/03/12 04:52:45;;;;;;;11.38;3.42;;;19.10;59.00;;;;;;5110789;28;20064;-60
2024/03/12 04:55:13;;;;;;;10.55;3.63;;;19.10;59.00;;;;;;5107541;28;20064;-60
2024/03/12 04:57:39;;;;;;;10.05;3.38;;;19.10;58.80;;;;;;5099684;28;20518;-60
2024/03/12 05:00:19;;;;;;;8.98;2.97;;;19.00;58.70;;;;;;5099539;28;20068;-60
2024/03/12 05:02:46;;;;;;;9.90;2.58;;;19.00;59.00;;;;;;5105726;28;20093;-59
2024/03/12 05:05:23;;;;;;;11.57;3.33;;;18.90;59.40;;;;;;5109542;28;20064;-60
2024/03/12 05:07:50;;;;;;;13.18;2.92;;;18.90;59.60;;;;;;5099334;28;20513;-59
2024/03/12 05:10:19;;;;;;;9.00;2.88;;;18.80;59.90;;;;;;5103466;28;20072;-59
2024/03/12 05:12:46;;;;;;;11.75;3.03;;;18.80;60.30;;;;;;5100710;28;20102;-59
2024/03/12 05:15:13;;;;;;;7.63;3.00;;;18.70;60.40;;;;;;5107134;28;20075;-59
2024/03/12 05:17:40;;;;;;;12.57;3.33;;;18.60;60.40;;;;;;5109407;28;20060;-59
2024/03/12 05:20:09;;;;;;;13.35;3.47;;;18.60;60.50;;;;;;5102329;28;20068;-59
2024/03/12 05:22:36;;;;;;;12.48;3.67;;;18.50;60.30;;;;;;5108208;28;20064;-61
2024/03/12 05:25:09;;;;;;;13.07;4.07;;;18.50;60.40;;;;;;5106967;28;20092;-60
2024/03/12 05:27:37;;;;;;;12.30;3.28;;;18.40;60.40;;;;;;5100190;28;20072;-60
2024/03/12 05:30:10;;;;;;;10.57;3.42;;;18.40;60.10;;;;;;5104961;28;20181;-61
2024/03/12 05:32:41;;;;;;;10.85;3.13;;;18.40;60.20;;;;;;5106529;28;20081;-50
2024/03/12 05:35:17;;;;;;;26.02;15.25;;;18.40;59.60;;;;;;5109244;28;20101;-59
2024/03/12 05:41:14;;;;;;;11.43;4.18;;;18.40;59.20;;;;;;5046829;28;20077;-59
2024/03/12 05:49:16;;;;;;;12.35;3.40;;;18.40;58.50;;;;;;5109539;28;20398;-58
2024/03/12 05:51:43;;;;;;;12.05;3.13;;;18.40;58.10;;;;;;5105060;28;20430;-59
2024/03/12 05:54:10;;;;;;;16.73;2.90;;;18.50;58.10;;;;;;5106528;28;20470;-58
2024/03/12 05:56:37;;;;;;;15.52;3.17;;;18.40;58.10;;;;;;5107004;28;20068;-58
2024/03/12 05:59:07;;;;;;;8.82;2.80;;;18.40;58.30;;;;;;5100486;28;20095;-59
2024/03/12 06:01:33;;;;;;;10.07;2.45;;;18.40;58.50;;;;;;5103694;28;20087;-57
2024/03/12 06:04:00;;;;;;;9.25;2.50;;;18.40;58.70;;;;;;5106275;28;20071;-59
2024/03/12 06:06:26;;;;;;;16.77;9.65;;;18.30;58.80;;;;;;5102163;28;20141;-57
2024/03/12 06:08:53;;;;;;;16.60;2.78;;;18.30;58.60;;;;;;5108520;28;20100;-57
2024/03/12 06:11:19;;;;;;;7.72;2.13;;;18.30;58.60;;;;;;5105687;28;20083;-57
2024/03/12 06:13:47;;;;;;;12.43;2.45;;;18.20;58.50;;;;;;5107264;27;20068;-59
2024/03/12 06:16:14;;;;;;;6.43;2.10;;;18.20;58.70;;;;;;5106914;27;20133;-58
2024/03/12 06:18:40;;;;;;;8.52;2.70;;;18.20;58.50;;;;;;5095225;28;20091;-59
2024/03/12 06:21:07;;;;;;;7.07;2.30;;;18.20;58.20;;;;;;5098480;28;20708;-58
2024/03/12 06:23:34;;;;;;;13.18;2.58;;;18.10;58.30;;;;;;5108633;28;20108;-60
2024/03/12 06:26:01;;;;;;;9.50;2.13;;;18.10;58.20;;;;;;5105853;28;20171;-58
2024/03/12 06:28:30;;;;;;;14.73;2.95;;;18.10;57.30;;;;;;5106857;28;20201;-58
2024/03/12 06:30:57;;;;;;;11.25;2.03;;;18.10;57.30;;;;;;5097880;28;20072;-59
2024/03/12 06:33:24;;;;;;;7.45;2.17;;;18.10;57.00;;;;;;5105685;28;20078;-58
2024/03/12 06:35:50;;;;;;;12.82;2.40;;;18.20;57.00;;;;;;5105014;28;20574;-60
2024/03/12 06:38:20;;;;;;;7.05;2.42;;;18.20;57.40;;;;;;5108834;28;20080;-59
2024/03/12 06:40:48;;;;;;;10.32;2.05;;;18.10;56.90;;;;;;5102953;28;20102;-59
2024/03/12 06:43:17;;;;;;;10.25;2.05;;;18.10;57.20;;;;;;5106416;28;20068;-58
2024/03/12 06:45:44;;;;;;;6.55;2.03;;;18.10;56.50;;;;;;5104524;28;20090;-59
2024/03/12 06:48:11;;;;;;;9.93;2.40;;;18.10;56.40;;;;;;5107539;28;20084;-59
2024/03/12 06:50:38;;;;;;;10.50;2.30;;;18.00;56.10;;;;;;5105956;28;20158;-58
2024/03/12 06:53:05;;;;;;;8.70;2.47;;;18.10;56.40;;;;;;5108257;28;20075;-59
2024/03/12 06:55:32;;;;;;;12.35;2.60;;;18.00;55.90;;;;;;5101528;28;20553;-59
2024/03/12 06:58:09;;;;;;;7.85;1.92;;;18.00;56.10;;;;;;5100313;28;20079;-58
2024/03/12 07:00:44;;;;;;;7.53;2.35;;;18.00;56.40;;;;;;5107798;28;20083;-59
2024/03/12 07:03:13;;;;;;;9.00;2.38;;;18.00;56.70;;;;;;5098785;28;20068;-56
2024/03/12 07:05:48;;;;;;;10.95;2.63;;;17.90;56.90;;;;;;5101151;28;20589;-57
2024/03/12 07:08:17;;;;;;;6.22;2.00;;;17.90;57.60;;;;;;5107346;28;20106;-59
2024/03/12 07:10:45;;;;;;;5.47;1.95;;;17.90;57.10;;;;;;5099974;28;20069;-58
2024/03/12 07:13:12;;;;;;;9.38;2.25;;;17.90;57.50;;;;;;5107068;28;20075;-56
2024/03/12 07:15:42;;;;;;;12.60;2.55;;;17.80;57.90;;;;;;5108601;28;20437;-58
2024/03/12 07:18:09;;;;;;;11.90;4.63;;;17.80;58.20;;;;;;5105803;28;20529;-59
2024/03/12 07:20:35;;;;;;;15.35;4.97;;;17.70;58.50;;;;;;5106231;28;20677;-58
2024/03/12 07:23:03;;;;;;;7.05;2.90;;;17.70;58.50;;;;;;5102683;28;20131;-59
2024/03/12 07:25:33;;;;;;;13.05;3.97;;;17.60;58.50;;;;;;5097981;28;20526;-59
2024/03/12 07:28:05;;;;;;;14.63;3.97;;;17.60;58.60;;;;;;5094179;28;20064;-59
2024/03/12 07:30:32;;;;;;;10.52;3.25;;;17.60;58.30;;;;;;5101063;28;20100;-55
2024/03/12 07:32:59;;;;;;;7.25;2.50;;;17.60;57.90;;;;;;5104492;28;20117;-55
2024/03/12 07:35:25;;;;;;;8.60;3.08;;;17.60;57.30;;;;;;5108307;28;20069;-57
2024/03/12 07:37:52;;;;;;;8.52;2.03;;;17.60;57.00;;;;;;5105592;28;20514;-58
2024/03/12 07:40:19;;;;;;;9.60;2.10;;;17.60;56.60;;;;;;5104257;28;20565;-58
2024/03/12 07:42:45;;;;;;;8.13;2.13;;;17.60;56.20;;;;;;5104844;28;20414;-59
2024/03/12 07:45:14;;;;;;;5.93;1.95;;;17.60;55.90;;;;;;5103305;28;20077;-59
2024/03/12 07:47:41;;;;;;;8.50;2.30;;;17.60;55.60;;;;;;5107412;28;20105;-59
2024/03/12 07:50:08;;;;;;;11.73;2.42;;;17.60;55.40;;;;;;5107914;28;20141;-59
2024/03/12 07:52:38;;;;;;;11.85;2.80;;;17.60;55.30;;;;;;5098505;28;20065;-60
2024/03/12 07:55:06;;;;;;;9.52;2.83;;;17.60;55.10;;;;;;5110152;28;20064;-58
2024/03/12 07:57:32;;;;;;;9.80;2.25;;;17.50;55.20;;;;;;5110772;28;20068;-58
2024/03/12 08:00:00;;;;;;;8.32;2.33;;;17.50;54.90;;;;;;5111797;28;20068;-58
2024/03/12 08:02:26;;;;;;;5.30;2.17;;;17.50;54.90;;;;;;5110730;28;20425;-59
2024/03/12 08:04:53;;;;;;;7.40;2.00;;;17.40;54.90;;;;;;5105434;28;20106;-58
2024/03/12 08:07:19;;;;;;;7.03;2.65;;;17.40;54.90;;;;;;5103276;28;20414;-58
2024/03/12 08:09:49;;;;;;;6.70;2.15;;;17.40;54.80;;;;;;5109943;28;20158;-57
2024/03/12 08:12:19;;;;;;;5.07;1.48;;;17.40;54.70;;;;;;5110848;28;20108;-58
2024/03/12 08:14:46;;;;;;;7.22;2.33;;;17.30;54.40;;;;;;5107479;28;20429;-58
2024/03/12 08:17:12;;;;;;;10.75;1.80;;;17.30;54.30;;;;;;5110583;27;20071;-58
2024/03/12 08:19:40;;;;;;;9.18;2.45;;;17.30;54.30;;;;;;5109969;28;20413;-59
2024/03/12 08:22:08;;;;;;;13.38;2.10;;;17.30;54.10;;;;;;5110805;28;20867;-59
2024/03/12 08:24:37;;;;;;;6.10;1.85;;;17.30;53.70;;;;;;5104852;28;20199;-59
2024/03/12 08:27:05;;;;;;;11.45;1.98;;;17.30;53.30;;;;;;5103970;28;20126;-59
2024/03/12 08:29:33;;;;;;;19.75;17.95;;;17.30;53.10;;;;;;5107541;28;20565;-59
2024/03/12 08:32:00;;;;;;;19.25;17.30;;;17.30;52.90;;;;;;5103873;28;20068;-59
2024/03/12 08:34:27;;;;;;;21.40;19.52;;;17.30;52.80;;;;;;5095405;27;20163;-58
2024/03/12 08:36:55;;;;;;;17.75;15.93;;;17.30;52.30;;;;;;5102449;28;20068;-59
2024/03/12 08:39:22;;;;;;;5.88;2.17;;;17.30;52.00;;;;;;5108128;28;20084;-58
2024/03/12 08:41:48;;;;;;;6.00;2.08;;;17.40;51.60;;;;;;5110785;28;20159;-59
2024/03/12 08:44:15;;;;;;;24.90;17.85;;;17.40;51.40;;;;;;5095147;28;20652;-58
2024/03/12 08:46:41;;;;;;;13.05;2.30;;;17.40;51.40;;;;;;5104395;28;20505;-58
2024/03/12 08:49:10;;;;;;;6.63;2.10;;;17.40;51.70;;;;;;5098391;28;20092;-59
2024/03/12 08:51:39;;;;;;;8.80;1.95;;;17.40;51.90;;;;;;5109983;27;20169;-59
2024/03/12 08:54:13;;;;;;;5.10;1.85;;;17.30;52.20;;;;;;5110790;28;20072;-59
2024/03/12 08:56:42;;;;;;;7.57;1.80;;;17.20;52.40;;;;;;5097368;28;20409;-58
2024/03/12 08:59:09;;;;;;;5.78;1.88;;;17.20;52.60;;;;;;5100576;28;20530;-58
2024/03/12 09:01:35;;;;;;;4.32;1.88;;;17.10;52.80;;;;;;5106669;28;20075;-58
2024/03/12 09:04:07;;;;;;;4.65;1.40;;;17.10;53.20;;;;;;5109634;28;20069;-58
2024/03/12 09:06:34;;;;;;;5.93;1.77;;;17.10;53.30;;;;;;5106734;28;20172;-58
2024/03/12 09:09:00;;;;;;;10.23;1.83;;;17.10;53.50;;;;;;5109481;28;20468;-57
2024/03/12 09:11:27;;;;;;;13.20;1.90;;;17.00;53.40;;;;;;5109740;28;20117;-55
2024/03/12 09:13:54;;;;;;;4.57;1.90;;;17.10;53.30;;;;;;5110144;28;20110;-58
2024/03/12 09:16:21;;;;;;;5.72;1.90;;;17.10;53.30;;;;;;5106867;28;20069;-57
2024/03/12 09:18:48;;;;;;;6.57;2.05;;;17.10;53.20;;;;;;5100619;28;20111;-56
2024/03/12 09:21:15;;;;;;;5.97;1.98;;;17.10;53.00;;;;;;5106920;28;20061;-57
2024/03/12 09:23:45;;;;;;;4.20;1.80;;;17.10;52.90;;;;;;5109613;28;20130;-57
2024/03/12 09:26:12;;;;;;;6.90;1.77;;;17.10;52.60;;;;;;5109459;28;20155;-59
2024/03/12 09:28:38;;;;;;;6.38;1.80;;;17.10;52.00;;;;;;5109365;28;20096;-57
2024/03/12 09:31:08;;;;;;;5.07;1.63;;;17.10;50.50;;;;;;5096362;28;20080;-56
2024/03/12 09:33:36;;;;;;;4.32;1.58;;;17.20;50.20;;;;;;5109398;28;20113;-57
2024/03/12 09:36:03;;;;;;;7.22;1.80;;;17.20;50.30;;;;;;5108077;28;20060;-56
2024/03/12 09:38:30;;;;;;;6.00;1.73;;;17.20;51.00;;;;;;5100769;28;20065;-59
2024/03/12 09:41:01;;;;;;;6.63;1.90;;;17.10;52.20;;;;;;5103848;28;20074;-58
2024/03/12 09:43:32;;;;;;;7.53;2.08;;;17.00;53.20;;;;;;5098510;28;20069;-57
2024/03/12 09:46:03;;;;;;;6.85;2.13;;;17.00;53.80;;;;;;5109583;28;20075;-56
2024/03/12 09:48:31;;;;;;;10.43;2.30;;;16.90;54.40;;;;;;5106986;28;20100;-58
2024/03/12 09:50:59;;;;;;;10.52;2.33;;;16.80;54.90;;;;;;5107847;28;20092;-59
2024/03/12 09:53:26;;;;;;;8.45;2.20;;;16.80;55.10;;;;;;5108831;28;20530;-58
2024/03/12 09:55:54;;;;;;;6.10;1.88;;;16.70;55.60;;;;;;5097913;28;20089;-59
2024/03/12 09:58:21;;;;;;;10.25;2.33;;;16.70;56.20;;;;;;5110723;27;20068;-56
2024/03/12 10:00:47;;;;;;;6.18;2.00;;;16.70;56.90;;;;;;5108551;28;20094;-58
2024/03/12 10:03:19;;;;;;;8.57;2.20;;;16.80;57.50;;;;;;5109602;28;20094;-58
2024/03/12 10:05:46;;;;;;;11.88;3.90;;;16.70;57.90;;;;;;5107415;28;20072;-57
2024/03/12 10:08:15;;;;;;;35.10;18.10;;;16.70;58.30;;;;;;5099165;28;20533;-56
2024/03/12 10:10:46;;;;;;;8.10;2.40;;;16.70;58.60;;;;;;5102540;28;20068;-55
2024/03/12 10:13:17;;;;;;;5.05;1.80;;;16.70;58.70;;;;;;5094382;28;20068;-56
2024/03/12 10:16:03;;;;;;;12.52;2.58;;;16.70;58.90;;;;;;5108292;28;20068;-57
2024/03/12 10:18:31;;;;;;;8.13;2.28;;;16.70;59.30;;;;;;5100480;28;20068;-58
2024/03/12 10:21:02;;;;;;;11.68;2.20;;;16.60;59.60;;;;;;5096426;28;20517;-55
2024/03/12 10:23:41;;;;;;;6.63;2.25;;;16.60;60.20;;;;;;5107683;28;20114;-57
2024/03/12 10:26:17;;;;;;;7.75;2.30;;;16.60;60.90;;;;;;5108741;28;20174;-57
2024/03/12 10:28:45;;;;;;;6.90;2.10;;;16.50;61.30;;;;;;5105992;28;20190;-56
2024/03/12 10:31:13;;;;;;;10.10;2.33;;;16.50;61.70;;;;;;5107848;28;20502;-58
2024/03/12 10:33:42;;;;;;;10.75;2.40;;;16.50;62.00;;;;;;5106505;28;20081;-57
2024/03/12 10:36:10;;;;;;;4.25;1.58;;;16.50;62.40;;;;;;5107925;28;20064;-56
2024/03/12 10:38:39;;;;;;;10.57;2.90;;;16.50;62.60;;;;;;5107799;28;20151;-57
2024/03/12 10:41:20;;;;;;;16.85;2.90;;;16.50;62.90;;;;;;5107332;28;20121;-58
2024/03/12 10:43:49;;;;;;;7.57;2.05;;;16.50;63.50;;;;;;5105389;28;20072;-57
2024/03/12 10:46:21;;;;;;;11.02;2.72;;;16.40;64.10;;;;;;5097912;28;20091;-59
2024/03/12 10:48:50;;;;;;;14.68;2.22;;;16.40;64.50;;;;;;5101805;28;20242;-58
2024/03/12 10:51:19;;;;;;;6.43;2.35;;;16.30;65.00;;;;;;5106190;28;20068;-57
2024/03/12 10:53:53;;;;;;;9.10;2.47;;;16.30;65.30;;;;;;5108087;28;20064;-57
2024/03/12 10:56:21;;;;;;;5.22;1.88;;;16.30;65.30;;;;;;5094972;28;20079;-56
2024/03/12 10:58:48;;;;;;;4.72;1.95;;;16.30;64.80;;;;;;5101789;28;20083;-55
2024/03/12 11:01:18;;;;;;;7.63;2.35;;;16.30;65.00;;;;;;5100041;28;20087;-58
2024/03/12 11:03:45;;;;;;;5.68;2.08;;;16.30;64.90;;;;;;5092674;28;20371;-57
2024/03/12 11:06:13;;;;;;;7.65;2.30;;;16.20;65.00;;;;;;5100135;28;20068;-58
2024/03/12 11:08:43;;;;;;;5.60;2.20;;;16.20;65.50;;;;;;5105399;28;20191;-57
2024/03/12 11:11:10;;;;;;;6.45;2.20;;;16.10;65.80;;;;;;5108265;28;20210;-58
2024/03/12 11:13:36;;;;;;;7.55;1.90;;;16.10;66.50;;;;;;5108361;28;20121;-58
2024/03/12 11:16:17;;;;;;;6.35;2.25;;;16.10;66.70;;;;;;5109339;28;20064;-57
2024/03/12 11:18:44;;;;;;;7.78;2.60;;;16.10;67.00;;;;;;5101223;28;20064;-58
2024/03/12 11:21:13;;;;;;;7.90;2.30;;;16.00;67.60;;;;;;5108374;28;20098;-58
2024/03/12 11:23:41;;;;;;;9.82;2.42;;;16.10;67.90;;;;;;5107886;28;20104;-58
2024/03/12 11:26:08;;;;;;;3.50;1.60;;;16.00;67.90;;;;;;5107888;28;20084;-57
2024/03/12 11:28:50;;;;;;;8.57;1.90;;;15.90;68.10;;;;;;5110716;28;20099;-57
2024/03/12 11:31:19;;;;;;;8.77;2.40;;;15.80;69.10;;;;;;5111688;28;20080;-57
2024/03/12 11:33:52;;;;;;;6.50;2.00;;;15.80;69.80;;;;;;5110631;28;20156;-58
2024/03/12 11:36:46;;;;;;;10.32;2.22;;;15.80;69.90;;;;;;5099676;28;20103;-58
2024/03/12 11:39:17;;;;;;;5.20;1.80;;;15.70;70.60;;;;;;5111232;28;20191;-56
2024/03/12 11:42:05;;;;;;;5.82;2.20;;;15.70;71.10;;;;;;5110024;28;20076;-56
2024/03/12 11:44:55;;;;;;;8.77;2.20;;;15.70;71.50;;;;;;5111265;28;20563;-57
2024/03/12 11:47:36;;;;;;;6.28;1.90;;;15.60;71.40;;;;;;5110570;28;20145;-59
2024/03/12 11:50:39;;;;;;;4.45;2.30;;;15.60;71.70;;;;;;5096401;28;20195;-55
2024/03/12 11:53:19;;;;;;;4.90;2.10;;;15.60;72.10;;;;;;5111857;28;20072;-57
2024/03/12 11:56:10;;;;;;;11.80;2.38;;;15.60;71.70;;;;;;5094633;28;20139;-57
2024/03/12 11:58:41;;;;;;;7.70;1.95;;;15.60;72.10;;;;;;5111794;28;20147;-58
2024/03/12 12:01:10;;;;;;;8.93;2.00;;;15.50;71.90;;;;;;5097951;28;20080;-58
2024/03/12 12:03:37;;;;;;;5.88;2.15;;;15.50;71.90;;;;;;5110488;28;20069;-58
2024/03/12 12:06:06;;;;;;;8.05;2.13;;;15.50;71.90;;;;;;5108730;28;20072;-58
2024/03/12 12:08:33;;;;;;;10.07;1.95;;;15.50;71.70;;;;;;5109954;28;20107;-56
2024/03/12 12:11:12;;;;;;;4.35;1.95;;;15.50;71.70;;;;;;5107659;28;20068;-57
2024/03/12 12:13:41;;;;;;;11.13;2.42;;;15.60;72.00;;;;;;5102613;28;20420;-57
2024/03/12 12:16:14;;;;;;;6.88;1.90;;;15.50;71.80;;;;;;5100025;28;20091;-57
2024/03/12 12:18:42;;;;;;;5.70;1.85;;;15.40;71.50;;;;;;5110767;28;20554;-58
2024/03/12 12:21:14;;;;;;;7.57;1.88;;;15.40;72.20;;;;;;5110773;28;20074;-58
2024/03/12 12:23:45;;;;;;;6.80;1.90;;;15.40;72.00;;;;;;5106385;28;20108;-57
2024/03/12 12:26:20;;;;;;;9.07;2.40;;;15.30;72.10;;;;;;5105764;28;20540;-57
2024/03/12 12:28:49;;;;;;;9.35;1.83;;;15.40;72.00;;;;;;5104165;28;20087;-57
2024/03/12 12:31:17;;;;;;;5.95;1.95;;;15.50;72.00;;;;;;5110064;28;20068;-58
2024/03/12 12:33:48;;;;;;;9.23;2.50;;;15.50;72.00;;;;;;5111870;28;20141;-58
2024/03/12 12:36:16;;;;;;;8.10;2.10;;;15.50;72.40;;;;;;5111818;28;20526;-58
2024/03/12 12:38:43;;;;;;;10.95;1.85;;;15.50;72.50;;;;;;5107141;28;20068;-56
2024/03/12 12:41:13;;;;;;;8.20;1.70;;;15.50;72.10;;;;;;5110929;28;20571;-55
2024/03/12 12:43:44;;;;;;;6.35;1.88;;;15.60;71.80;;;;;;5102299;28;20064;-58
2024/03/12 12:46:18;;;;;;;9.93;1.90;;;15.60;71.60;;;;;;5111093;28;20072;-56
2024/03/12 12:48:48;;;;;;;5.40;2.00;;;15.70;71.10;;;;;;5104517;28;20230;-57
2024/03/12 12:51:15;;;;;;;6.60;1.70;;;15.70;71.30;;;;;;5104337;28;20114;-57
2024/03/12 12:53:41;;;;;;;5.78;1.73;;;15.70;71.10;;;;;;5107006;28;20072;-57
2024/03/12 12:56:08;;;;;;;11.38;1.92;;;15.70;71.40;;;;;;5110481;28;20139;-57
2024/03/12 12:58:36;;;;;;;5.57;1.95;;;15.70;71.50;;;;;;5109463;28;20064;-58
2024/03/12 13:01:10;;;;;;;42.33;2.80;;;15.70;72.10;;;;;;5109288;28;20765;-58